Search for airport 
image banner adimage banner adimage banner ad
image banner ad

0Y6 - Lake Mills Muni

Located in Lake Mills, United States

ICAO - 0Y6, IATA -

Data provided by Airmate  

General information

Coordinates: N43°24'49" W93°30'42"
Elevation is 1260 feet MSL.
Magnetic variation is 04° East
View others Airports in Iowa

Operational data

Special qualification required
Current time UTC:
Current local time:
Weather at : KFXY - Forest City Muni ( 22 km )
METAR: KFXY 150935Z AUTO 00000KT 10SM CLR 12/12 A3012 RMK AO2
View NOTAMs / SUP AIP / TFR affecting this airport [VIEW]
Communications frequencies: [VIEW]

Runways:

RWY identifierQFULength (ft)Width (ft)SurfaceLDA (ft)
183380100GRASS
363380100GRASS

Airport contact information

Address: Lake Mills United States

Satellite view of 0Y6